Terminal Aerodrome Forecast
Issued by NWS

Home | Current Version | Previous Version | Text Only | Print | Product List | Glossary Off
Versions: 1 2 3 4 5 6 7 8 9 10 11 12 13 14 15 16 17 18 19 20 21 22

000
FTUS43 KBIS 232300
TAFDIK
TAF
KDIK 232320Z 2400/2424 31022G31KT P6SM OVC020
      TEMPO 2400/2402 5SM -SN
     FM240500 32015G23KT P6SM SCT030
     FM241000 32013KT P6SM SCT130
     FM241400 33011KT P6SM SCT200
     FM242000 30011KT P6SM BKN029=

USA.gov is the U.S. government's official web portal to all federal, state and local government web resources and services.